sensor_id;sensor_type;location;lat;lon;timestamp;pressure;altitude;pressure_sealevel;temperature;humidity
58239;BME280;44037;55.638;37.356;2023-06-26T00:02:17;99031.63;;;17.80;66.74
58239;BME280;44037;55.638;37.356;2023-06-26T00:04:44;99033.41;;;17.79;67.83
58239;BME280;44037;55.638;37.356;2023-06-26T00:07:11;99024.59;;;17.82;69.79
58239;BME280;44037;55.638;37.356;2023-06-26T00:09:39;99023.88;;;17.77;72.02
58239;BME280;44037;55.638;37.356;2023-06-26T00:12:07;99025.78;;;17.72;71.67
58239;BME280;44037;55.638;37.356;2023-06-26T00:14:34;99023.34;;;17.65;71.11
58239;BME280;44037;55.638;37.356;2023-06-26T00:17:01;99025.19;;;17.62;70.81
58239;BME280;44037;55.638;37.356;2023-06-26T00:19:28;99027.91;;;17.59;71.35
58239;BME280;44037;55.638;37.356;2023-06-26T00:21:55;99020.03;;;17.59;71.76
58239;BME280;44037;55.638;37.356;2023-06-26T00:24:22;99014.69;;;17.63;74.13
58239;BME280;44037;55.638;37.356;2023-06-26T00:26:51;99012.09;;;17.62;74.38
58239;BME280;44037;55.638;37.356;2023-06-26T00:29:18;99021.75;;;17.60;73.91
58239;BME280;44037;55.638;37.356;2023-06-26T00:31:45;99009.63;;;17.57;73.34
58239;BME280;44037;55.638;37.356;2023-06-26T00:34:12;99012.28;;;17.56;73.19
58239;BME280;44037;55.638;37.356;2023-06-26T00:36:40;99002.66;;;17.56;73.36
58239;BME280;44037;55.638;37.356;2023-06-26T00:39:09;99006.19;;;17.55;73.41
58239;BME280;44037;55.638;37.356;2023-06-26T00:41:36;99006.09;;;17.58;72.89
58239;BME280;44037;55.638;37.356;2023-06-26T00:44:05;99003.34;;;17.63;70.28
58239;BME280;44037;55.638;37.356;2023-06-26T00:46:32;99004.97;;;17.67;70.35
58239;BME280;44037;55.638;37.356;2023-06-26T00:49:02;98999.69;;;17.69;70.61
58239;BME280;44037;55.638;37.356;2023-06-26T00:51:30;98998.78;;;17.70;70.81
58239;BME280;44037;55.638;37.356;2023-06-26T00:53:58;99004.88;;;17.70;71.47
58239;BME280;44037;55.638;37.356;2023-06-26T00:56:26;98997.81;;;17.72;72.87
58239;BME280;44037;55.638;37.356;2023-06-26T00:58:53;99001.31;;;17.73;72.39
58239;BME280;44037;55.638;37.356;2023-06-26T01:01:21;98998.84;;;17.66;71.63
58239;BME280;44037;55.638;37.356;2023-06-26T01:03:51;98990.31;;;17.61;71.95
58239;BME280;44037;55.638;37.356;2023-06-26T01:06:22;99006.91;;;17.60;71.73
58239;BME280;44037;55.638;37.356;2023-06-26T01:08:50;99000.88;;;17.58;71.75
58239;BME280;44037;55.638;37.356;2023-06-26T01:11:18;99003.53;;;17.57;71.91
58239;BME280;44037;55.638;37.356;2023-06-26T01:13:45;99006.00;;;17.61;73.04
58239;BME280;44037;55.638;37.356;2023-06-26T01:16:15;99001.75;;;17.57;74.01
58239;BME280;44037;55.638;37.356;2023-06-26T01:18:46;99005.47;;;17.50;74.01
58239;BME280;44037;55.638;37.356;2023-06-26T01:21:14;99004.75;;;17.45;73.96
58239;BME280;44037;55.638;37.356;2023-06-26T01:23:49;99015.16;;;17.46;73.69
58239;BME280;44037;55.638;37.356;2023-06-26T01:26:23;99006.38;;;17.49;73.74
58239;BME280;44037;55.638;37.356;2023-06-26T01:28:53;99003.63;;;17.54;73.96
58239;BME280;44037;55.638;37.356;2023-06-26T01:31:20;99000.78;;;17.61;73.96
58239;BME280;44037;55.638;37.356;2023-06-26T01:33:49;99004.28;;;17.60;73.73
58239;BME280;44037;55.638;37.356;2023-06-26T01:36:17;99003.44;;;17.60;72.89
58239;BME280;44037;55.638;37.356;2023-06-26T01:38:44;99003.34;;;17.63;73.40
58239;BME280;44037;55.638;37.356;2023-06-26T01:41:11;99001.34;;;17.71;73.13
58239;BME280;44037;55.638;37.356;2023-06-26T01:43:57;99008.81;;;17.84;73.19
58239;BME280;44037;55.638;37.356;2023-06-26T01:46:34;99006.69;;;17.96;73.75
58239;BME280;44037;55.638;37.356;2023-06-26T01:49:09;98992.63;;;18.01;70.99
58239;BME280;44037;55.638;37.356;2023-06-26T01:51:41;99005.88;;;17.94;70.70
58239;BME280;44037;55.638;37.356;2023-06-26T01:54:14;99006.78;;;17.93;72.24
58239;BME280;44037;55.638;37.356;2023-06-26T01:56:45;99000.38;;;18.04;72.71
58239;BME280;44037;55.638;37.356;2023-06-26T01:59:14;99008.72;;;18.17;72.95
58239;BME280;44037;55.638;37.356;2023-06-26T02:01:41;99008.31;;;18.29;72.91
58239;BME280;44037;55.638;37.356;2023-06-26T02:04:08;99006.28;;;18.37;71.74
58239;BME280;44037;55.638;37.356;2023-06-26T02:06:35;99004.69;;;18.33;70.53
58239;BME280;44037;55.638;37.356;2023-06-26T02:09:02;99004.72;;;18.32;71.85
58239;BME280;44037;55.638;37.356;2023-06-26T02:11:30;99004.47;;;18.39;72.47
58239;BME280;44037;55.638;37.356;2023-06-26T02:14:00;99003.06;;;18.56;73.03
58239;BME280;44037;55.638;37.356;2023-06-26T02:16:29;99009.38;;;18.76;72.86
58239;BME280;44037;55.638;37.356;2023-06-26T02:18:56;99010.53;;;18.94;72.60
58239;BME280;44037;55.638;37.356;2023-06-26T02:21:43;99015.59;;;19.00;70.69
58239;BME280;44037;55.638;37.356;2023-06-26T02:24:10;99011.75;;;18.83;71.07
58239;BME280;44037;55.638;37.356;2023-06-26T02:26:37;99011.16;;;18.75;71.73
58239;BME280;44037;55.638;37.356;2023-06-26T02:29:04;99011.59;;;18.88;72.28
58239;BME280;44037;55.638;37.356;2023-06-26T02:31:33;99007.47;;;19.06;72.81
58239;BME280;44037;55.638;37.356;2023-06-26T02:34:00;99012.88;;;19.27;72.48
58239;BME280;44037;55.638;37.356;2023-06-26T02:36:27;99006.09;;;19.45;69.81
58239;BME280;44037;55.638;37.356;2023-06-26T02:38:54;98994.59;;;19.47;67.35
58239;BME280;44037;55.638;37.356;2023-06-26T02:41:21;99003.19;;;19.53;66.98
58239;BME280;44037;55.638;37.356;2023-06-26T02:43:48;98993.66;;;19.72;69.15
58239;BME280;44037;55.638;37.356;2023-06-26T02:46:16;99000.44;;;20.02;69.75
58239;BME280;44037;55.638;37.356;2023-06-26T02:48:44;98997.91;;;20.43;69.42
58239;BME280;44037;55.638;37.356;2023-06-26T02:51:11;98991.03;;;20.82;68.76
58239;BME280;44037;55.638;37.356;2023-06-26T02:53:38;98990.72;;;21.09;64.07
58239;BME280;44037;55.638;37.356;2023-06-26T02:56:05;98995.38;;;21.04;62.76
58239;BME280;44037;55.638;37.356;2023-06-26T02:58:32;98993.19;;;20.93;63.61
58239;BME280;44037;55.638;37.356;2023-06-26T03:01:00;98992.56;;;21.07;66.27
58239;BME280;44037;55.638;37.356;2023-06-26T03:03:27;98999.59;;;21.46;67.04
58239;BME280;44037;55.638;37.356;2023-06-26T03:05:56;98985.50;;;21.85;66.48
58239;BME280;44037;55.638;37.356;2023-06-26T03:08:23;98992.66;;;22.20;63.00
58239;BME280;44037;55.638;37.356;2023-06-26T03:10:50;98995.56;;;22.14;54.13
58239;BME280;44037;55.638;37.356;2023-06-26T03:13:17;98998.09;;;21.98;58.00
58239;BME280;44037;55.638;37.356;2023-06-26T03:15:45;98992.34;;;21.89;57.99
58239;BME280;44037;55.638;37.356;2023-06-26T03:18:12;98981.78;;;22.08;60.09
58239;BME280;44037;55.638;37.356;2023-06-26T03:20:39;98989.75;;;22.44;60.72
58239;BME280;44037;55.638;37.356;2023-06-26T03:23:08;98985.63;;;22.73;60.07
58239;BME280;44037;55.638;37.356;2023-06-26T03:25:35;98988.25;;;22.91;56.45
58239;BME280;44037;55.638;37.356;2023-06-26T03:28:02;98990.13;;;22.71;53.86
58239;BME280;44037;55.638;37.356;2023-06-26T03:30:29;98992.09;;;22.31;53.80
58239;BME280;44037;55.638;37.356;2023-06-26T03:32:56;98992.91;;;21.96;55.14
58239;BME280;44037;55.638;37.356;2023-06-26T03:35:23;98992.41;;;21.88;56.95
58239;BME280;44037;55.638;37.356;2023-06-26T03:37:50;98981.28;;;22.00;57.46
58239;BME280;44037;55.638;37.356;2023-06-26T03:40:19;98980.06;;;22.25;58.33
58239;BME280;44037;55.638;37.356;2023-06-26T03:42:46;98975.84;;;22.58;58.19
58239;BME280;44037;55.638;37.356;2023-06-26T03:45:13;98977.94;;;22.68;54.83
58239;BME280;44037;55.638;37.356;2023-06-26T03:47:40;98976.03;;;22.54;52.48
58239;BME280;44037;55.638;37.356;2023-06-26T03:50:07;98979.19;;;22.44;52.61
58239;BME280;44037;55.638;37.356;2023-06-26T03:52:35;98979.78;;;22.31;54.92
58239;BME280;44037;55.638;37.356;2023-06-26T03:55:02;98970.38;;;22.25;56.77
58239;BME280;44037;55.638;37.356;2023-06-26T03:57:31;98974.38;;;22.52;56.63
58239;BME280;44037;55.638;37.356;2023-06-26T03:59:58;98975.28;;;22.86;56.19
58239;BME280;44037;55.638;37.356;2023-06-26T04:02:25;98972.50;;;23.23;55.63
58239;BME280;44037;55.638;37.356;2023-06-26T04:04:52;98969.81;;;23.40;49.79
58239;BME280;44037;55.638;37.356;2023-06-26T04:07:19;98965.88;;;23.31;48.21
58239;BME280;44037;55.638;37.356;2023-06-26T04:09:46;98967.44;;;23.18;48.24
58239;BME280;44037;55.638;37.356;2023-06-26T04:12:14;98968.53;;;23.14;50.07
58239;BME280;44037;55.638;37.356;2023-06-26T04:14:42;98968.09;;;23.39;50.92
58239;BME280;44037;55.638;37.356;2023-06-26T04:17:10;98969.47;;;23.78;49.53
58239;BME280;44037;55.638;37.356;2023-06-26T04:19:37;98963.16;;;23.97;46.94
58239;BME280;44037;55.638;37.356;2023-06-26T04:22:04;98969.88;;;23.87;46.04
58239;BME280;44037;55.638;37.356;2023-06-26T04:24:31;98964.34;;;23.75;45.96
58239;BME280;44037;55.638;37.356;2023-06-26T04:26:58;98968.28;;;23.84;46.98
58239;BME280;44037;55.638;37.356;2023-06-26T04:29:26;98970.28;;;24.27;46.59
58239;BME280;44037;55.638;37.356;2023-06-26T04:31:55;98975.50;;;24.74;45.54
58239;BME280;44037;55.638;37.356;2023-06-26T04:34:24;98966.56;;;25.05;42.76
58239;BME280;44037;55.638;37.356;2023-06-26T04:36:51;98970.25;;;25.03;42.58
58239;BME280;44037;55.638;37.356;2023-06-26T04:39:18;98966.00;;;25.00;42.94
58239;BME280;44037;55.638;37.356;2023-06-26T04:41:45;98966.47;;;24.92;43.60
58239;BME280;44037;55.638;37.356;2023-06-26T04:44:12;98968.66;;;25.00;43.81
58239;BME280;44037;55.638;37.356;2023-06-26T04:46:39;98960.59;;;25.30;43.26
58239;BME280;44037;55.638;37.356;2023-06-26T04:49:09;98962.63;;;25.69;42.82
58239;BME280;44037;55.638;37.356;2023-06-26T04:51:36;98958.25;;;25.82;38.81
58239;BME280;44037;55.638;37.356;2023-06-26T04:54:06;98957.16;;;25.57;38.20
58239;BME280;44037;55.638;37.356;2023-06-26T04:56:34;98959.72;;;25.30;38.79
58239;BME280;44037;55.638;37.356;2023-06-26T04:59:01;98960.78;;;24.98;37.99
58239;BME280;44037;55.638;37.356;2023-06-26T05:01:29;98949.97;;;24.73;39.35
58239;BME280;44037;55.638;37.356;2023-06-26T05:03:58;98958.53;;;24.47;39.47
58239;BME280;44037;55.638;37.356;2023-06-26T05:06:26;98958.88;;;24.41;40.73
58239;BME280;44037;55.638;37.356;2023-06-26T05:08:53;98956.34;;;24.54;41.09
58239;BME280;44037;55.638;37.356;2023-06-26T05:11:20;98953.44;;;24.59;41.09
58239;BME280;44037;55.638;37.356;2023-06-26T05:13:48;98968.84;;;24.52;41.26
58239;BME280;44037;55.638;37.356;2023-06-26T05:16:15;98963.88;;;24.46;40.68
58239;BME280;44037;55.638;37.356;2023-06-26T05:18:42;98964.81;;;24.45;40.79
58239;BME280;44037;55.638;37.356;2023-06-26T05:21:10;98956.31;;;24.39;41.22
58239;BME280;44037;55.638;37.356;2023-06-26T05:23:39;98958.47;;;24.33;40.68
58239;BME280;44037;55.638;37.356;2023-06-26T05:26:06;98955.72;;;24.34;41.40
58239;BME280;44037;55.638;37.356;2023-06-26T05:28:34;98958.41;;;24.49;42.07
58239;BME280;44037;55.638;37.356;2023-06-26T05:31:02;98960.91;;;24.66;41.19
58239;BME280;44037;55.638;37.356;2023-06-26T05:33:31;98959.19;;;24.51;40.61
58239;BME280;44037;55.638;37.356;2023-06-26T05:36:03;98953.63;;;24.25;40.64
58239;BME280;44037;55.638;37.356;2023-06-26T05:38:32;98950.59;;;24.17;41.97
58239;BME280;44037;55.638;37.356;2023-06-26T05:41:01;98961.94;;;24.19;41.48
58239;BME280;44037;55.638;37.356;2023-06-26T05:43:28;98948.44;;;24.07;42.49
58239;BME280;44037;55.638;37.356;2023-06-26T05:45:56;98951.31;;;24.04;42.81
58239;BME280;44037;55.638;37.356;2023-06-26T05:48:23;98948.78;;;24.17;42.67
58239;BME280;44037;55.638;37.356;2023-06-26T05:50:50;98954.66;;;24.22;41.84
58239;BME280;44037;55.638;37.356;2023-06-26T05:53:18;98947.00;;;24.18;41.53
58239;BME280;44037;55.638;37.356;2023-06-26T05:55:46;98948.28;;;24.11;41.86
58239;BME280;44037;55.638;37.356;2023-06-26T05:58:16;98945.81;;;24.07;42.51
58239;BME280;44037;55.638;37.356;2023-06-26T06:00:44;98949.66;;;24.18;42.40
58239;BME280;44037;55.638;37.356;2023-06-26T06:03:12;98954.56;;;24.24;42.03
58239;BME280;44037;55.638;37.356;2023-06-26T06:05:39;98951.69;;;24.13;41.65
58239;BME280;44037;55.638;37.356;2023-06-26T06:08:06;98947.94;;;23.85;42.74
58239;BME280;44037;55.638;37.356;2023-06-26T06:10:33;98952.06;;;23.74;43.29
58239;BME280;44037;55.638;37.356;2023-06-26T06:13:00;98954.28;;;23.82;43.59
58239;BME280;44037;55.638;37.356;2023-06-26T06:15:28;98950.03;;;23.96;43.24
58239;BME280;44037;55.638;37.356;2023-06-26T06:17:55;98953.44;;;23.98;42.08
58239;BME280;44037;55.638;37.356;2023-06-26T06:20:25;98955.31;;;23.80;42.49
58239;BME280;44037;55.638;37.356;2023-06-26T06:22:52;98956.00;;;23.67;42.16
58239;BME280;44037;55.638;37.356;2023-06-26T06:25:19;98951.56;;;23.52;43.04
58239;BME280;44037;55.638;37.356;2023-06-26T06:27:46;98948.16;;;23.50;44.09
58239;BME280;44037;55.638;37.356;2023-06-26T06:30:14;98945.91;;;23.58;43.44
58239;BME280;44037;55.638;37.356;2023-06-26T06:32:42;98949.00;;;23.66;43.06
58239;BME280;44037;55.638;37.356;2023-06-26T06:35:09;98946.53;;;23.47;41.33
58239;BME280;44037;55.638;37.356;2023-06-26T06:37:36;98958.19;;;23.27;42.40
58239;BME280;44037;55.638;37.356;2023-06-26T06:40:05;98943.28;;;23.26;43.43
58239;BME280;44037;55.638;37.356;2023-06-26T06:42:33;98941.84;;;23.36;43.07
58239;BME280;44037;55.638;37.356;2023-06-26T06:45:02;98949.59;;;23.39;41.96
58239;BME280;44037;55.638;37.356;2023-06-26T06:47:31;98945.34;;;23.37;42.21
58239;BME280;44037;55.638;37.356;2023-06-26T06:50:01;98939.97;;;23.38;43.37
58239;BME280;44037;55.638;37.356;2023-06-26T06:52:35;98936.91;;;23.46;41.76
58239;BME280;44037;55.638;37.356;2023-06-26T06:55:03;98933.06;;;23.52;42.85
58239;BME280;44037;55.638;37.356;2023-06-26T06:57:32;98942.59;;;23.70;41.34
58239;BME280;44037;55.638;37.356;2023-06-26T07:00:02;98930.75;;;23.77;40.65
58239;BME280;44037;55.638;37.356;2023-06-26T07:02:31;98931.31;;;23.83;39.56
58239;BME280;44037;55.638;37.356;2023-06-26T07:04:58;98930.22;;;23.87;39.89
58239;BME280;44037;55.638;37.356;2023-06-26T07:07:29;98930.22;;;24.03;40.32
58239;BME280;44037;55.638;37.356;2023-06-26T07:09:58;98933.78;;;24.18;40.18
58239;BME280;44037;55.638;37.356;2023-06-26T07:12:25;98930.19;;;24.33;40.79
58239;BME280;44037;55.638;37.356;2023-06-26T07:14:52;98932.72;;;24.51;39.01
58239;BME280;44037;55.638;37.356;2023-06-26T07:17:19;98924.03;;;24.63;38.16
58239;BME280;44037;55.638;37.356;2023-06-26T07:19:46;98926.25;;;24.71;38.41
58239;BME280;44037;55.638;37.356;2023-06-26T07:22:13;98931.38;;;24.74;37.28
58239;BME280;44037;55.638;37.356;2023-06-26T07:24:42;98931.22;;;24.61;36.77
58239;BME280;44037;55.638;37.356;2023-06-26T07:27:09;98922.88;;;24.53;36.82
58239;BME280;44037;55.638;37.356;2023-06-26T07:29:36;98936.69;;;24.58;37.72
58239;BME280;44037;55.638;37.356;2023-06-26T07:32:03;98925.84;;;24.63;37.48
58239;BME280;44037;55.638;37.356;2023-06-26T07:34:30;98929.22;;;24.65;37.76
58239;BME280;44037;55.638;37.356;2023-06-26T07:36:57;98910.25;;;24.73;37.80
58239;BME280;44037;55.638;37.356;2023-06-26T07:39:24;98921.03;;;24.84;37.29
58239;BME280;44037;55.638;37.356;2023-06-26T07:41:52;98920.84;;;24.87;37.43
58239;BME280;44037;55.638;37.356;2023-06-26T07:44:20;98924.91;;;24.93;37.62
58239;BME280;44037;55.638;37.356;2023-06-26T07:46:47;98915.63;;;25.14;38.04
58239;BME280;44037;55.638;37.356;2023-06-26T07:49:14;98911.06;;;25.45;37.41
58239;BME280;44037;55.638;37.356;2023-06-26T07:51:41;98911.97;;;25.59;34.89
58239;BME280;44037;55.638;37.356;2023-06-26T07:54:08;98909.81;;;25.51;33.78
58239;BME280;44037;55.638;37.356;2023-06-26T07:56:53;98909.81;;;25.37;34.91
58239;BME280;44037;55.638;37.356;2023-06-26T07:59:21;98907.94;;;25.39;34.77
58239;BME280;44037;55.638;37.356;2023-06-26T08:01:50;98908.56;;;25.57;34.15
58239;BME280;44037;55.638;37.356;2023-06-26T08:04:19;98904.06;;;25.72;34.19
58239;BME280;44037;55.638;37.356;2023-06-26T08:06:47;98906.88;;;25.56;34.57
58239;BME280;44037;55.638;37.356;2023-06-26T08:09:15;98898.47;;;25.35;35.42
58239;BME280;44037;55.638;37.356;2023-06-26T08:11:42;98910.53;;;24.97;35.18
58239;BME280;44037;55.638;37.356;2023-06-26T08:14:11;98907.25;;;24.79;36.10
58239;BME280;44037;55.638;37.356;2023-06-26T08:16:38;98908.19;;;24.78;35.13
58239;BME280;44037;55.638;37.356;2023-06-26T08:19:05;98909.84;;;24.64;34.23
58239;BME280;44037;55.638;37.356;2023-06-26T08:21:32;98911.72;;;24.48;35.43
58239;BME280;44037;55.638;37.356;2023-06-26T08:24:00;98905.09;;;24.41;33.49
58239;BME280;44037;55.638;37.356;2023-06-26T08:26:27;98913.69;;;24.44;35.21
58239;BME280;44037;55.638;37.356;2023-06-26T08:28:54;98919.31;;;24.68;35.00
58239;BME280;44037;55.638;37.356;2023-06-26T08:31:24;98907.13;;;24.95;33.71
58239;BME280;44037;55.638;37.356;2023-06-26T08:33:51;98907.66;;;25.29;34.21
58239;BME280;44037;55.638;37.356;2023-06-26T08:36:20;98900.13;;;25.65;34.14
58239;BME280;44037;55.638;37.356;2023-06-26T08:38:48;98912.53;;;25.91;34.07
58239;BME280;44037;55.638;37.356;2023-06-26T08:41:15;98910.06;;;26.16;34.39
58239;BME280;44037;55.638;37.356;2023-06-26T08:43:42;98910.75;;;26.45;34.37
58239;BME280;44037;55.638;37.356;2023-06-26T08:46:09;98908.41;;;26.53;33.56
58239;BME280;44037;55.638;37.356;2023-06-26T08:48:39;98908.41;;;26.53;33.89
58239;BME280;44037;55.638;37.356;2023-06-26T08:51:09;98907.78;;;26.63;34.16
58239;BME280;44037;55.638;37.356;2023-06-26T08:53:43;98909.50;;;26.77;33.79
58239;BME280;44037;55.638;37.356;2023-06-26T08:56:11;98909.72;;;26.87;33.26
58239;BME280;44037;55.638;37.356;2023-06-26T08:58:41;98904.81;;;26.93;32.62
58239;BME280;44037;55.638;37.356;2023-06-26T09:01:09;98902.38;;;26.90;33.16
58239;BME280;44037;55.638;37.356;2023-06-26T09:03:38;98895.78;;;26.70;33.49
58239;BME280;44037;55.638;37.356;2023-06-26T09:06:07;98900.53;;;26.39;32.86
58239;BME280;44037;55.638;37.356;2023-06-26T09:08:34;98900.31;;;26.16;32.61
58239;BME280;44037;55.638;37.356;2023-06-26T09:11:01;98905.53;;;25.90;32.18
58239;BME280;44037;55.638;37.356;2023-06-26T09:13:29;98898.88;;;25.70;32.70
58239;BME280;44037;55.638;37.356;2023-06-26T09:15:57;98904.94;;;25.45;33.64
58239;BME280;44037;55.638;37.356;2023-06-26T09:18:24;98899.06;;;25.25;33.65
58239;BME280;44037;55.638;37.356;2023-06-26T09:20:54;98896.06;;;25.03;34.16
58239;BME280;44037;55.638;37.356;2023-06-26T09:23:21;98901.00;;;24.80;34.82
58239;BME280;44037;55.638;37.356;2023-06-26T09:25:51;98911.19;;;24.57;35.08
58239;BME280;44037;55.638;37.356;2023-06-26T09:28:18;98907.25;;;24.34;34.85
58239;BME280;44037;55.638;37.356;2023-06-26T09:30:45;98903.03;;;24.15;34.99
58239;BME280;44037;55.638;37.356;2023-06-26T09:33:14;98900.28;;;24.02;35.91
58239;BME280;44037;55.638;37.356;2023-06-26T09:35:41;98906.31;;;24.04;36.58
58239;BME280;44037;55.638;37.356;2023-06-26T09:38:10;98904.34;;;24.08;37.92
58239;BME280;44037;55.638;37.356;2023-06-26T09:40:37;98917.41;;;24.11;37.22
58239;BME280;44037;55.638;37.356;2023-06-26T09:43:05;98904.97;;;23.97;36.87
58239;BME280;44037;55.638;37.356;2023-06-26T09:45:32;98898.16;;;23.77;37.24
58239;BME280;44037;55.638;37.356;2023-06-26T09:48:00;98909.84;;;23.57;37.39
58239;BME280;44037;55.638;37.356;2023-06-26T09:50:28;98901.75;;;23.60;37.37
58239;BME280;44037;55.638;37.356;2023-06-26T09:52:58;98903.03;;;23.69;36.99
58239;BME280;44037;55.638;37.356;2023-06-26T09:55:26;98903.44;;;23.77;37.08
58239;BME280;44037;55.638;37.356;2023-06-26T09:57:55;98902.06;;;23.86;37.10
58239;BME280;44037;55.638;37.356;2023-06-26T10:00:23;98896.44;;;23.92;37.20
58239;BME280;44037;55.638;37.356;2023-06-26T10:02:50;98908.47;;;23.82;38.33
58239;BME280;44037;55.638;37.356;2023-06-26T10:05:17;98901.91;;;23.57;38.35
58239;BME280;44037;55.638;37.356;2023-06-26T10:07:45;98921.56;;;23.53;38.59
58239;BME280;44037;55.638;37.356;2023-06-26T10:10:13;98911.91;;;23.52;37.42
58239;BME280;44037;55.638;37.356;2023-06-26T10:12:44;98908.25;;;23.54;36.32
58239;BME280;44037;55.638;37.356;2023-06-26T10:15:15;98902.34;;;23.65;34.60
58239;BME280;44037;55.638;37.356;2023-06-26T10:17:43;98904.19;;;23.79;33.07
58239;BME280;44037;55.638;37.356;2023-06-26T10:20:14;98901.78;;;23.90;31.85
58239;BME280;44037;55.638;37.356;2023-06-26T10:22:44;98904.91;;;23.99;32.19
58239;BME280;44037;55.638;37.356;2023-06-26T10:25:15;98905.84;;;23.98;32.51
58239;BME280;44037;55.638;37.356;2023-06-26T10:27:48;98894.31;;;24.13;32.99
58239;BME280;44037;55.638;37.356;2023-06-26T10:30:18;98890.72;;;24.30;31.52
58239;BME280;44037;55.638;37.356;2023-06-26T10:32:48;98889.41;;;24.52;31.22
58239;BME280;44037;55.638;37.356;2023-06-26T10:35:15;98878.09;;;24.79;31.42
58239;BME280;44037;55.638;37.356;2023-06-26T10:37:44;98873.34;;;24.84;30.55
58239;BME280;44037;55.638;37.356;2023-06-26T10:40:11;98876.94;;;24.68;31.26
58239;BME280;44037;55.638;37.356;2023-06-26T10:42:39;98878.34;;;24.60;31.74
58239;BME280;44037;55.638;37.356;2023-06-26T10:45:14;98871.41;;;24.73;32.12
58239;BME280;44037;55.638;37.356;2023-06-26T10:47:46;98867.41;;;24.95;32.19
58239;BME280;44037;55.638;37.356;2023-06-26T10:50:18;98859.13;;;25.14;32.30
58239;BME280;44037;55.638;37.356;2023-06-26T10:52:46;98857.53;;;25.26;32.82
58239;BME280;44037;55.638;37.356;2023-06-26T10:55:14;98853.50;;;25.33;32.84
58239;BME280;44037;55.638;37.356;2023-06-26T10:57:46;98846.69;;;25.43;33.56
58239;BME280;44037;55.638;37.356;2023-06-26T11:00:17;98849.75;;;25.65;33.34
58239;BME280;44037;55.638;37.356;2023-06-26T11:02:48;98850.81;;;25.75;33.45
58239;BME280;44037;55.638;37.356;2023-06-26T11:05:27;98847.28;;;25.89;33.50
58239;BME280;44037;55.638;37.356;2023-06-26T11:08:04;98844.69;;;26.15;33.38
58239;BME280;44037;55.638;37.356;2023-06-26T11:10:48;98841.28;;;26.26;32.37
58239;BME280;44037;55.638;37.356;2023-06-26T11:13:18;98839.56;;;26.25;31.96
58239;BME280;44037;55.638;37.356;2023-06-26T11:15:47;98830.34;;;26.30;32.28
58239;BME280;44037;55.638;37.356;2023-06-26T11:18:16;98839.50;;;26.52;30.82
58239;BME280;44037;55.638;37.356;2023-06-26T11:20:43;98834.44;;;26.73;30.87
58239;BME280;44037;55.638;37.356;2023-06-26T11:23:11;98839.78;;;26.86;30.87
58239;BME280;44037;55.638;37.356;2023-06-26T11:25:38;98838.72;;;26.89;29.92
58239;BME280;44037;55.638;37.356;2023-06-26T11:28:09;98844.44;;;26.70;30.63
58239;BME280;44037;55.638;37.356;2023-06-26T11:30:36;98850.94;;;26.52;30.61
58239;BME280;44037;55.638;37.356;2023-06-26T11:33:08;98847.66;;;26.36;31.57
58239;BME280;44037;55.638;37.356;2023-06-26T11:35:36;98842.81;;;26.02;31.50
58239;BME280;44037;55.638;37.356;2023-06-26T11:38:04;98847.16;;;25.90;32.39
58239;BME280;44037;55.638;37.356;2023-06-26T11:40:32;98840.56;;;25.83;33.03
58239;BME280;44037;55.638;37.356;2023-06-26T11:43:00;98843.41;;;25.80;33.50
58239;BME280;44037;55.638;37.356;2023-06-26T11:45:29;98840.53;;;25.70;32.82
58239;BME280;44037;55.638;37.356;2023-06-26T11:47:57;98834.38;;;25.42;33.01
58239;BME280;44037;55.638;37.356;2023-06-26T11:50:27;98831.06;;;25.11;33.57
58239;BME280;44037;55.638;37.356;2023-06-26T11:52:55;98841.75;;;24.95;34.15
58239;BME280;44037;55.638;37.356;2023-06-26T11:55:22;98825.88;;;24.66;34.61
58239;BME280;44037;55.638;37.356;2023-06-26T11:57:50;98820.94;;;24.60;35.33
58239;BME280;44037;55.638;37.356;2023-06-26T12:00:17;98823.03;;;24.55;35.43
58239;BME280;44037;55.638;37.356;2023-06-26T12:02:44;98827.56;;;24.53;35.44
58239;BME280;44037;55.638;37.356;2023-06-26T12:05:13;98824.34;;;24.48;35.46
58239;BME280;44037;55.638;37.356;2023-06-26T12:07:46;98821.50;;;24.36;36.03
58239;BME280;44037;55.638;37.356;2023-06-26T12:10:14;98819.06;;;24.19;35.32
58239;BME280;44037;55.638;37.356;2023-06-26T12:12:41;98816.94;;;24.10;36.29
58239;BME280;44037;55.638;37.356;2023-06-26T12:15:15;98813.84;;;24.17;36.44
58239;BME280;44037;55.638;37.356;2023-06-26T12:17:42;98806.50;;;24.37;36.33
58239;BME280;44037;55.638;37.356;2023-06-26T12:20:20;98797.97;;;24.61;36.13
58239;BME280;44037;55.638;37.356;2023-06-26T12:23:13;98790.69;;;24.93;36.06
58239;BME280;44037;55.638;37.356;2023-06-26T12:25:40;98793.72;;;25.14;35.46
58239;BME280;44037;55.638;37.356;2023-06-26T12:28:16;98792.22;;;25.25;35.30
58239;BME280;44037;55.638;37.356;2023-06-26T12:30:46;98791.25;;;25.26;34.45
58239;BME280;44037;55.638;37.356;2023-06-26T12:33:14;98786.03;;;25.24;34.18
58239;BME280;44037;55.638;37.356;2023-06-26T12:35:41;98780.81;;;25.37;34.57
58239;BME280;44037;55.638;37.356;2023-06-26T12:38:09;98777.50;;;25.61;35.05
58239;BME280;44037;55.638;37.356;2023-06-26T12:40:46;98782.63;;;25.77;34.80
58239;BME280;44037;55.638;37.356;2023-06-26T12:43:22;98777.03;;;25.95;34.21
58239;BME280;44037;55.638;37.356;2023-06-26T12:45:54;98779.78;;;26.06;33.10
58239;BME280;44037;55.638;37.356;2023-06-26T12:48:21;98769.50;;;26.01;33.10
58239;BME280;44037;55.638;37.356;2023-06-26T12:50:48;98777.53;;;26.00;33.25
58239;BME280;44037;55.638;37.356;2023-06-26T12:53:16;98775.53;;;26.03;33.26
58239;BME280;44037;55.638;37.356;2023-06-26T12:55:43;98772.38;;;26.11;33.00
58239;BME280;44037;55.638;37.356;2023-06-26T12:58:13;98761.84;;;26.22;33.58